sensor_id;sensor_type;location;lat;lon;timestamp;P1;durP1;ratioP1;P2;durP2;ratioP2
59074;SDS011;44860;53.020;6.738;2024-02-16T00:01:20;9.65;;;5.25;;
59074;SDS011;44860;53.020;6.738;2024-02-16T00:03:45;9.82;;;5.05;;
59074;SDS011;44860;53.020;6.738;2024-02-16T00:06:11;9.07;;;5.22;;
59074;SDS011;44860;53.020;6.738;2024-02-16T00:08:37;12.02;;;5.43;;
59074;SDS011;44860;53.020;6.738;2024-02-16T00:11:04;13.65;;;5.50;;
59074;SDS011;44860;53.020;6.738;2024-02-16T00:13:30;7.50;;;4.82;;
59074;SDS011;44860;53.020;6.738;2024-02-16T00:15:56;11.00;;;5.30;;
59074;SDS011;44860;53.020;6.738;2024-02-16T00:18:22;7.95;;;5.40;;
59074;SDS011;44860;53.020;6.738;2024-02-16T00:20:49;11.27;;;5.50;;
59074;SDS011;44860;53.020;6.738;2024-02-16T00:23:14;10.20;;;5.40;;
59074;SDS011;44860;53.020;6.738;2024-02-16T00:25:40;9.70;;;5.53;;
59074;SDS011;44860;53.020;6.738;2024-02-16T00:28:07;10.00;;;5.15;;
59074;SDS011;44860;53.020;6.738;2024-02-16T00:30:33;11.18;;;5.38;;
59074;SDS011;44860;53.020;6.738;2024-02-16T00:32:59;9.52;;;4.90;;
59074;SDS011;44860;53.020;6.738;2024-02-16T00:35:26;9.50;;;5.47;;
59074;SDS011;44860;53.020;6.738;2024-02-16T00:37:51;12.50;;;5.15;;
59074;SDS011;44860;53.020;6.738;2024-02-16T00:40:17;10.82;;;4.80;;
59074;SDS011;44860;53.020;6.738;2024-02-16T00:42:43;10.13;;;5.20;;
59074;SDS011;44860;53.020;6.738;2024-02-16T00:45:08;9.65;;;5.10;;
59074;SDS011;44860;53.020;6.738;2024-02-16T00:47:34;7.70;;;4.95;;
59074;SDS011;44860;53.020;6.738;2024-02-16T00:50:00;9.82;;;5.22;;
59074;SDS011;44860;53.020;6.738;2024-02-16T00:52:26;8.68;;;5.10;;
59074;SDS011;44860;53.020;6.738;2024-02-16T00:54:51;7.40;;;4.65;;
59074;SDS011;44860;53.020;6.738;2024-02-16T00:57:17;8.35;;;4.50;;
59074;SDS011;44860;53.020;6.738;2024-02-16T00:59:42;10.48;;;4.82;;
59074;SDS011;44860;53.020;6.738;2024-02-16T01:02:08;10.65;;;5.25;;
59074;SDS011;44860;53.020;6.738;2024-02-16T01:04:35;8.82;;;4.50;;
59074;SDS011;44860;53.020;6.738;2024-02-16T01:07:01;10.38;;;4.80;;
59074;SDS011;44860;53.020;6.738;2024-02-16T01:09:28;9.85;;;4.38;;
59074;SDS011;44860;53.020;6.738;2024-02-16T01:11:53;7.30;;;4.28;;
59074;SDS011;44860;53.020;6.738;2024-02-16T01:14:19;8.57;;;4.20;;
59074;SDS011;44860;53.020;6.738;2024-02-16T01:16:48;8.00;;;4.03;;
59074;SDS011;44860;53.020;6.738;2024-02-16T01:19:13;8.50;;;4.18;;
59074;SDS011;44860;53.020;6.738;2024-02-16T01:21:39;8.32;;;4.15;;
59074;SDS011;44860;53.020;6.738;2024-02-16T01:24:06;8.98;;;4.18;;
59074;SDS011;44860;53.020;6.738;2024-02-16T01:26:32;7.95;;;3.95;;
59074;SDS011;44860;53.020;6.738;2024-02-16T01:28:58;8.15;;;3.92;;
59074;SDS011;44860;53.020;6.738;2024-02-16T01:31:25;8.88;;;4.03;;
59074;SDS011;44860;53.020;6.738;2024-02-16T01:33:51;6.00;;;3.70;;
59074;SDS011;44860;53.020;6.738;2024-02-16T01:36:18;8.80;;;4.07;;
59074;SDS011;44860;53.020;6.738;2024-02-16T01:38:44;6.95;;;3.42;;
59074;SDS011;44860;53.020;6.738;2024-02-16T01:41:09;9.50;;;3.70;;
59074;SDS011;44860;53.020;6.738;2024-02-16T01:43:36;7.18;;;3.63;;
59074;SDS011;44860;53.020;6.738;2024-02-16T01:46:01;8.98;;;3.58;;
59074;SDS011;44860;53.020;6.738;2024-02-16T01:48:27;9.50;;;3.83;;
59074;SDS011;44860;53.020;6.738;2024-02-16T01:50:53;11.80;;;3.70;;
59074;SDS011;44860;53.020;6.738;2024-02-16T01:53:19;5.60;;;3.65;;
59074;SDS011;44860;53.020;6.738;2024-02-16T01:55:46;10.02;;;3.30;;
59074;SDS011;44860;53.020;6.738;2024-02-16T01:58:12;5.57;;;3.25;;
59074;SDS011;44860;53.020;6.738;2024-02-16T02:00:39;8.60;;;3.80;;
59074;SDS011;44860;53.020;6.738;2024-02-16T02:03:08;6.15;;;3.47;;
59074;SDS011;44860;53.020;6.738;2024-02-16T02:05:33;6.57;;;3.20;;
59074;SDS011;44860;53.020;6.738;2024-02-16T02:08:08;8.02;;;3.50;;
59074;SDS011;44860;53.020;6.738;2024-02-16T02:10:35;7.53;;;3.47;;
59074;SDS011;44860;53.020;6.738;2024-02-16T02:13:00;8.40;;;3.90;;
59074;SDS011;44860;53.020;6.738;2024-02-16T02:15:26;7.50;;;3.17;;
59074;SDS011;44860;53.020;6.738;2024-02-16T02:17:52;7.45;;;3.20;;
59074;SDS011;44860;53.020;6.738;2024-02-16T02:20:17;7.00;;;3.60;;
59074;SDS011;44860;53.020;6.738;2024-02-16T02:22:43;7.30;;;3.40;;
59074;SDS011;44860;53.020;6.738;2024-02-16T02:25:08;8.23;;;3.67;;
59074;SDS011;44860;53.020;6.738;2024-02-16T02:27:36;7.30;;;3.30;;
59074;SDS011;44860;53.020;6.738;2024-02-16T02:30:02;7.65;;;3.45;;
59074;SDS011;44860;53.020;6.738;2024-02-16T02:32:28;8.18;;;3.58;;
59074;SDS011;44860;53.020;6.738;2024-02-16T02:34:54;6.53;;;3.40;;
59074;SDS011;44860;53.020;6.738;2024-02-16T02:37:20;8.15;;;3.40;;
59074;SDS011;44860;53.020;6.738;2024-02-16T02:39:45;8.80;;;3.38;;
59074;SDS011;44860;53.020;6.738;2024-02-16T02:42:12;9.60;;;3.35;;
59074;SDS011;44860;53.020;6.738;2024-02-16T02:44:38;8.57;;;3.50;;
59074;SDS011;44860;53.020;6.738;2024-02-16T02:47:03;6.57;;;3.50;;
59074;SDS011;44860;53.020;6.738;2024-02-16T02:49:29;7.78;;;3.33;;
59074;SDS011;44860;53.020;6.738;2024-02-16T02:51:55;6.28;;;3.22;;
59074;SDS011;44860;53.020;6.738;2024-02-16T02:54:21;8.27;;;3.20;;
59074;SDS011;44860;53.020;6.738;2024-02-16T02:56:46;6.60;;;3.50;;
59074;SDS011;44860;53.020;6.738;2024-02-16T02:59:12;6.53;;;3.53;;
59074;SDS011;44860;53.020;6.738;2024-02-16T03:01:37;6.70;;;3.50;;
59074;SDS011;44860;53.020;6.738;2024-02-16T03:04:03;6.28;;;3.30;;
59074;SDS011;44860;53.020;6.738;2024-02-16T03:06:29;6.57;;;3.53;;
59074;SDS011;44860;53.020;6.738;2024-02-16T03:08:55;9.18;;;3.88;;
59074;SDS011;44860;53.020;6.738;2024-02-16T03:11:20;7.03;;;3.40;;
59074;SDS011;44860;53.020;6.738;2024-02-16T03:13:46;8.23;;;3.47;;
59074;SDS011;44860;53.020;6.738;2024-02-16T03:16:13;7.72;;;3.50;;
59074;SDS011;44860;53.020;6.738;2024-02-16T03:18:39;6.35;;;3.80;;
59074;SDS011;44860;53.020;6.738;2024-02-16T03:21:05;7.50;;;3.70;;
59074;SDS011;44860;53.020;6.738;2024-02-16T03:23:31;8.23;;;3.58;;
59074;SDS011;44860;53.020;6.738;2024-02-16T03:25:56;7.68;;;3.58;;
59074;SDS011;44860;53.020;6.738;2024-02-16T03:28:22;8.38;;;3.80;;
59074;SDS011;44860;53.020;6.738;2024-02-16T03:30:48;6.75;;;3.70;;
59074;SDS011;44860;53.020;6.738;2024-02-16T03:33:14;8.38;;;3.58;;
59074;SDS011;44860;53.020;6.738;2024-02-16T03:35:39;9.70;;;4.07;;
59074;SDS011;44860;53.020;6.738;2024-02-16T03:38:05;10.02;;;4.20;;
59074;SDS011;44860;53.020;6.738;2024-02-16T03:40:31;7.93;;;3.67;;
59074;SDS011;44860;53.020;6.738;2024-02-16T03:42:57;9.20;;;3.78;;
59074;SDS011;44860;53.020;6.738;2024-02-16T03:45:23;6.75;;;3.70;;
59074;SDS011;44860;53.020;6.738;2024-02-16T03:47:49;4.75;;;3.35;;
59074;SDS011;44860;53.020;6.738;2024-02-16T03:50:17;9.23;;;3.75;;
59074;SDS011;44860;53.020;6.738;2024-02-16T03:52:47;8.02;;;3.88;;
59074;SDS011;44860;53.020;6.738;2024-02-16T03:55:13;7.35;;;3.67;;
59074;SDS011;44860;53.020;6.738;2024-02-16T03:57:39;7.68;;;3.80;;
59074;SDS011;44860;53.020;6.738;2024-02-16T04:00:05;6.63;;;3.88;;
59074;SDS011;44860;53.020;6.738;2024-02-16T04:02:32;7.95;;;3.72;;
59074;SDS011;44860;53.020;6.738;2024-02-16T04:04:58;8.98;;;3.90;;
59074;SDS011;44860;53.020;6.738;2024-02-16T04:07:23;6.60;;;3.50;;
59074;SDS011;44860;53.020;6.738;2024-02-16T04:09:49;8.73;;;3.83;;
59074;SDS011;44860;53.020;6.738;2024-02-16T04:12:15;8.98;;;3.67;;
59074;SDS011;44860;53.020;6.738;2024-02-16T04:14:41;8.30;;;4.15;;
59074;SDS011;44860;53.020;6.738;2024-02-16T04:17:08;8.05;;;4.18;;
59074;SDS011;44860;53.020;6.738;2024-02-16T04:19:36;8.45;;;4.00;;
59074;SDS011;44860;53.020;6.738;2024-02-16T04:22:02;7.03;;;3.85;;
59074;SDS011;44860;53.020;6.738;2024-02-16T04:24:28;7.90;;;3.97;;
59074;SDS011;44860;53.020;6.738;2024-02-16T04:26:54;8.00;;;3.92;;
59074;SDS011;44860;53.020;6.738;2024-02-16T04:29:20;7.50;;;3.80;;
59074;SDS011;44860;53.020;6.738;2024-02-16T04:31:45;7.88;;;3.88;;
59074;SDS011;44860;53.020;6.738;2024-02-16T04:34:11;7.60;;;3.75;;
59074;SDS011;44860;53.020;6.738;2024-02-16T04:36:38;8.60;;;4.22;;
59074;SDS011;44860;53.020;6.738;2024-02-16T04:39:04;6.15;;;4.00;;
59074;SDS011;44860;53.020;6.738;2024-02-16T04:41:30;5.65;;;3.75;;
59074;SDS011;44860;53.020;6.738;2024-02-16T04:43:55;7.55;;;4.20;;
59074;SDS011;44860;53.020;6.738;2024-02-16T04:46:21;8.02;;;3.83;;
59074;SDS011;44860;53.020;6.738;2024-02-16T04:48:47;9.20;;;4.18;;
59074;SDS011;44860;53.020;6.738;2024-02-16T04:51:13;6.75;;;4.45;;
59074;SDS011;44860;53.020;6.738;2024-02-16T04:53:38;6.65;;;3.70;;
59074;SDS011;44860;53.020;6.738;2024-02-16T04:56:04;7.00;;;4.22;;
59074;SDS011;44860;53.020;6.738;2024-02-16T04:58:31;8.32;;;3.97;;
59074;SDS011;44860;53.020;6.738;2024-02-16T05:00:57;7.57;;;3.90;;
59074;SDS011;44860;53.020;6.738;2024-02-16T05:03:23;7.43;;;3.95;;
59074;SDS011;44860;53.020;6.738;2024-02-16T05:05:49;8.40;;;4.00;;
59074;SDS011;44860;53.020;6.738;2024-02-16T05:08:15;6.72;;;3.90;;
59074;SDS011;44860;53.020;6.738;2024-02-16T05:10:40;6.20;;;3.65;;
59074;SDS011;44860;53.020;6.738;2024-02-16T05:13:06;8.73;;;4.00;;
59074;SDS011;44860;53.020;6.738;2024-02-16T05:15:32;6.63;;;3.85;;
59074;SDS011;44860;53.020;6.738;2024-02-16T05:17:57;7.97;;;3.90;;
59074;SDS011;44860;53.020;6.738;2024-02-16T05:20:23;8.55;;;4.07;;
59074;SDS011;44860;53.020;6.738;2024-02-16T05:22:49;8.25;;;4.10;;
59074;SDS011;44860;53.020;6.738;2024-02-16T05:25:15;9.10;;;3.95;;
59074;SDS011;44860;53.020;6.738;2024-02-16T05:27:45;6.40;;;4.18;;
59074;SDS011;44860;53.020;6.738;2024-02-16T05:30:12;6.53;;;3.50;;
59074;SDS011;44860;53.020;6.738;2024-02-16T05:32:40;6.82;;;4.38;;
59074;SDS011;44860;53.020;6.738;2024-02-16T05:35:07;7.70;;;4.13;;
59074;SDS011;44860;53.020;6.738;2024-02-16T05:37:46;7.97;;;4.30;;
59074;SDS011;44860;53.020;6.738;2024-02-16T05:40:22;9.15;;;4.53;;
59074;SDS011;44860;53.020;6.738;2024-02-16T05:42:50;6.68;;;4.07;;
59074;SDS011;44860;53.020;6.738;2024-02-16T05:45:17;7.40;;;4.15;;
59074;SDS011;44860;53.020;6.738;2024-02-16T05:47:46;8.15;;;4.45;;
59074;SDS011;44860;53.020;6.738;2024-02-16T05:50:12;7.15;;;4.63;;
59074;SDS011;44860;53.020;6.738;2024-02-16T05:52:39;6.45;;;4.20;;
59074;SDS011;44860;53.020;6.738;2024-02-16T05:55:06;5.93;;;4.38;;
59074;SDS011;44860;53.020;6.738;2024-02-16T05:57:33;7.57;;;4.30;;
59074;SDS011;44860;53.020;6.738;2024-02-16T05:59:59;6.97;;;3.95;;
59074;SDS011;44860;53.020;6.738;2024-02-16T06:02:24;6.80;;;4.30;;
59074;SDS011;44860;53.020;6.738;2024-02-16T06:04:51;6.57;;;3.97;;
59074;SDS011;44860;53.020;6.738;2024-02-16T06:07:17;9.05;;;4.32;;
59074;SDS011;44860;53.020;6.738;2024-02-16T06:09:43;7.35;;;4.07;;
59074;SDS011;44860;53.020;6.738;2024-02-16T06:12:08;6.93;;;3.78;;
59074;SDS011;44860;53.020;6.738;2024-02-16T06:14:35;12.35;;;4.00;;
59074;SDS011;44860;53.020;6.738;2024-02-16T06:17:02;9.52;;;4.15;;
59074;SDS011;44860;53.020;6.738;2024-02-16T06:19:28;7.93;;;4.07;;
59074;SDS011;44860;53.020;6.738;2024-02-16T06:21:54;7.38;;;3.90;;
59074;SDS011;44860;53.020;6.738;2024-02-16T06:24:21;8.55;;;4.03;;
59074;SDS011;44860;53.020;6.738;2024-02-16T06:26:50;7.43;;;4.10;;
59074;SDS011;44860;53.020;6.738;2024-02-16T06:29:16;8.57;;;4.07;;
59074;SDS011;44860;53.020;6.738;2024-02-16T06:31:42;7.05;;;4.47;;
59074;SDS011;44860;53.020;6.738;2024-02-16T06:34:08;6.93;;;4.45;;
59074;SDS011;44860;53.020;6.738;2024-02-16T06:36:34;9.40;;;4.20;;
59074;SDS011;44860;53.020;6.738;2024-02-16T06:39:00;7.70;;;4.00;;
59074;SDS011;44860;53.020;6.738;2024-02-16T06:41:26;6.85;;;3.70;;
59074;SDS011;44860;53.020;6.738;2024-02-16T06:43:52;6.07;;;3.75;;
59074;SDS011;44860;53.020;6.738;2024-02-16T06:46:17;10.70;;;4.22;;
59074;SDS011;44860;53.020;6.738;2024-02-16T06:48:43;7.85;;;4.07;;
59074;SDS011;44860;53.020;6.738;2024-02-16T06:51:08;8.00;;;4.47;;
59074;SDS011;44860;53.020;6.738;2024-02-16T06:53:34;5.95;;;3.97;;
59074;SDS011;44860;53.020;6.738;2024-02-16T06:56:00;7.22;;;3.78;;
59074;SDS011;44860;53.020;6.738;2024-02-16T06:58:25;9.43;;;3.83;;
59074;SDS011;44860;53.020;6.738;2024-02-16T07:00:51;7.75;;;4.15;;
59074;SDS011;44860;53.020;6.738;2024-02-16T07:03:17;6.78;;;4.07;;
59074;SDS011;44860;53.020;6.738;2024-02-16T07:05:43;5.57;;;3.78;;
59074;SDS011;44860;53.020;6.738;2024-02-16T07:08:09;6.65;;;4.20;;
59074;SDS011;44860;53.020;6.738;2024-02-16T07:10:34;6.28;;;4.03;;
59074;SDS011;44860;53.020;6.738;2024-02-16T07:13:00;7.28;;;4.30;;
59074;SDS011;44860;53.020;6.738;2024-02-16T07:15:26;8.55;;;4.65;;
59074;SDS011;44860;53.020;6.738;2024-02-16T07:17:52;7.78;;;4.15;;
59074;SDS011;44860;53.020;6.738;2024-02-16T07:20:18;6.75;;;4.43;;
59074;SDS011;44860;53.020;6.738;2024-02-16T07:22:44;7.82;;;4.47;;
59074;SDS011;44860;53.020;6.738;2024-02-16T07:25:12;7.32;;;3.92;;
59074;SDS011;44860;53.020;6.738;2024-02-16T07:27:38;7.32;;;4.30;;
59074;SDS011;44860;53.020;6.738;2024-02-16T07:30:04;8.05;;;4.25;;
59074;SDS011;44860;53.020;6.738;2024-02-16T07:32:30;5.85;;;4.22;;
59074;SDS011;44860;53.020;6.738;2024-02-16T07:34:56;7.57;;;4.18;;
59074;SDS011;44860;53.020;6.738;2024-02-16T07:37:22;8.60;;;4.40;;
59074;SDS011;44860;53.020;6.738;2024-02-16T07:39:47;6.80;;;4.18;;
59074;SDS011;44860;53.020;6.738;2024-02-16T07:42:13;6.65;;;4.00;;
59074;SDS011;44860;53.020;6.738;2024-02-16T07:44:39;8.45;;;4.22;;
59074;SDS011;44860;53.020;6.738;2024-02-16T07:47:05;6.38;;;4.00;;
59074;SDS011;44860;53.020;6.738;2024-02-16T07:49:31;8.00;;;4.40;;
59074;SDS011;44860;53.020;6.738;2024-02-16T07:51:56;7.57;;;4.05;;
59074;SDS011;44860;53.020;6.738;2024-02-16T07:54:25;10.43;;;4.10;;
59074;SDS011;44860;53.020;6.738;2024-02-16T07:56:50;7.40;;;4.00;;
59074;SDS011;44860;53.020;6.738;2024-02-16T07:59:16;6.35;;;4.50;;
59074;SDS011;44860;53.020;6.738;2024-02-16T08:01:44;7.07;;;4.28;;
59074;SDS011;44860;53.020;6.738;2024-02-16T08:04:10;9.60;;;5.07;;
59074;SDS011;44860;53.020;6.738;2024-02-16T08:06:35;6.95;;;4.32;;
59074;SDS011;44860;53.020;6.738;2024-02-16T08:09:02;8.23;;;4.43;;
59074;SDS011;44860;53.020;6.738;2024-02-16T08:11:28;7.60;;;4.32;;
59074;SDS011;44860;53.020;6.738;2024-02-16T08:13:53;8.30;;;4.00;;
59074;SDS011;44860;53.020;6.738;2024-02-16T08:16:20;7.18;;;4.60;;
59074;SDS011;44860;53.020;6.738;2024-02-16T08:18:46;6.93;;;4.53;;
59074;SDS011;44860;53.020;6.738;2024-02-16T08:21:12;8.23;;;4.80;;
59074;SDS011;44860;53.020;6.738;2024-02-16T08:23:38;8.75;;;4.57;;
59074;SDS011;44860;53.020;6.738;2024-02-16T08:26:03;9.90;;;4.60;;
59074;SDS011;44860;53.020;6.738;2024-02-16T08:28:29;8.45;;;4.43;;
59074;SDS011;44860;53.020;6.738;2024-02-16T08:30:55;7.95;;;4.50;;
59074;SDS011;44860;53.020;6.738;2024-02-16T08:33:20;7.90;;;4.05;;
59074;SDS011;44860;53.020;6.738;2024-02-16T08:35:46;10.00;;;5.22;;
59074;SDS011;44860;53.020;6.738;2024-02-16T08:38:12;7.40;;;4.43;;
59074;SDS011;44860;53.020;6.738;2024-02-16T08:40:38;6.57;;;4.40;;
59074;SDS011;44860;53.020;6.738;2024-02-16T08:43:04;8.07;;;4.10;;
59074;SDS011;44860;53.020;6.738;2024-02-16T08:45:32;7.47;;;4.40;;
59074;SDS011;44860;53.020;6.738;2024-02-16T08:47:58;7.80;;;4.50;;
59074;SDS011;44860;53.020;6.738;2024-02-16T08:50:24;6.47;;;4.65;;
59074;SDS011;44860;53.020;6.738;2024-02-16T08:52:49;10.30;;;4.80;;
59074;SDS011;44860;53.020;6.738;2024-02-16T08:55:15;7.72;;;4.95;;
59074;SDS011;44860;53.020;6.738;2024-02-16T08:57:41;7.22;;;4.65;;
59074;SDS011;44860;53.020;6.738;2024-02-16T09:00:07;7.45;;;4.38;;
59074;SDS011;44860;53.020;6.738;2024-02-16T09:02:34;6.72;;;4.80;;
59074;SDS011;44860;53.020;6.738;2024-02-16T09:05:00;9.55;;;5.13;;
59074;SDS011;44860;53.020;6.738;2024-02-16T09:07:26;8.63;;;4.72;;
59074;SDS011;44860;53.020;6.738;2024-02-16T09:09:52;8.77;;;4.72;;
59074;SDS011;44860;53.020;6.738;2024-02-16T09:12:19;6.70;;;4.50;;
59074;SDS011;44860;53.020;6.738;2024-02-16T09:14:44;9.05;;;5.20;;
59074;SDS011;44860;53.020;6.738;2024-02-16T09:17:10;7.57;;;4.88;;
59074;SDS011;44860;53.020;6.738;2024-02-16T09:19:36;9.90;;;5.28;;
59074;SDS011;44860;53.020;6.738;2024-02-16T09:22:01;8.65;;;5.13;;
59074;SDS011;44860;53.020;6.738;2024-02-16T09:24:28;7.40;;;4.97;;
59074;SDS011;44860;53.020;6.738;2024-02-16T09:26:55;6.93;;;5.05;;
59074;SDS011;44860;53.020;6.738;2024-02-16T09:29:29;7.72;;;5.00;;
59074;SDS011;44860;53.020;6.738;2024-02-16T09:31:55;9.13;;;5.55;;
59074;SDS011;44860;53.020;6.738;2024-02-16T09:34:20;7.50;;;5.47;;
59074;SDS011;44860;53.020;6.738;2024-02-16T09:36:46;9.20;;;5.07;;
59074;SDS011;44860;53.020;6.738;2024-02-16T09:39:12;8.82;;;5.20;;
59074;SDS011;44860;53.020;6.738;2024-02-16T09:41:38;9.52;;;5.40;;
59074;SDS011;44860;53.020;6.738;2024-02-16T09:44:08;7.90;;;5.50;;
59074;SDS011;44860;53.020;6.738;2024-02-16T09:46:35;9.20;;;5.88;;
59074;SDS011;44860;53.020;6.738;2024-02-16T09:49:02;9.00;;;5.60;;
59074;SDS011;44860;53.020;6.738;2024-02-16T09:51:28;8.43;;;5.35;;
59074;SDS011;44860;53.020;6.738;2024-02-16T09:53:54;9.02;;;5.50;;
59074;SDS011;44860;53.020;6.738;2024-02-16T09:56:20;9.63;;;5.90;;
59074;SDS011;44860;53.020;6.738;2024-02-16T09:58:47;9.20;;;5.95;;
59074;SDS011;44860;53.020;6.738;2024-02-16T10:01:19;9.77;;;5.90;;
59074;SDS011;44860;53.020;6.738;2024-02-16T10:03:49;8.07;;;5.43;;
59074;SDS011;44860;53.020;6.738;2024-02-16T10:06:15;12.40;;;5.90;;
59074;SDS011;44860;53.020;6.738;2024-02-16T10:08:51;9.40;;;6.30;;
59074;SDS011;44860;53.020;6.738;2024-02-16T10:11:19;8.93;;;5.32;;
59074;SDS011;44860;53.020;6.738;2024-02-16T10:13:58;8.48;;;5.75;;
59074;SDS011;44860;53.020;6.738;2024-02-16T10:16:25;10.65;;;5.82;;
59074;SDS011;44860;53.020;6.738;2024-02-16T10:19:03;8.02;;;6.30;;
59074;SDS011;44860;53.020;6.738;2024-02-16T10:21:30;10.43;;;5.78;;
59074;SDS011;44860;53.020;6.738;2024-02-16T10:24:03;10.10;;;6.60;;
59074;SDS011;44860;53.020;6.738;2024-02-16T10:26:34;12.07;;;6.45;;
59074;SDS011;44860;53.020;6.738;2024-02-16T10:29:08;9.57;;;6.22;;
59074;SDS011;44860;53.020;6.738;2024-02-16T10:31:35;11.18;;;6.95;;
59074;SDS011;44860;53.020;6.738;2024-02-16T10:34:02;12.88;;;7.07;;
59074;SDS011;44860;53.020;6.738;2024-02-16T10:36:37;9.98;;;6.50;;
59074;SDS011;44860;53.020;6.738;2024-02-16T10:39:04;11.13;;;6.32;;
59074;SDS011;44860;53.020;6.738;2024-02-16T10:41:41;9.57;;;6.57;;
59074;SDS011;44860;53.020;6.738;2024-02-16T10:44:07;7.82;;;6.10;;
59074;SDS011;44860;53.020;6.738;2024-02-16T10:46:33;10.00;;;6.72;;
59074;SDS011;44860;53.020;6.738;2024-02-16T10:48:59;11.40;;;6.97;;
59074;SDS011;44860;53.020;6.738;2024-02-16T10:51:36;13.25;;;7.40;;
59074;SDS011;44860;53.020;6.738;2024-02-16T10:54:08;11.32;;;7.22;;
59074;SDS011;44860;53.020;6.738;2024-02-16T10:56:35;11.00;;;7.55;;
59074;SDS011;44860;53.020;6.738;2024-02-16T10:59:06;13.48;;;7.60;;
59074;SDS011;44860;53.020;6.738;2024-02-16T11:01:39;9.98;;;6.72;;
59074;SDS011;44860;53.020;6.738;2024-02-16T11:04:06;9.10;;;6.75;;
59074;SDS011;44860;53.020;6.738;2024-02-16T11:06:44;11.18;;;8.05;;
59074;SDS011;44860;53.020;6.738;2024-02-16T11:09:34;12.35;;;7.80;;
59074;SDS011;44860;53.020;6.738;2024-02-16T11:12:02;10.75;;;8.10;;
59074;SDS011;44860;53.020;6.738;2024-02-16T11:17:20;12.27;;;7.85;;
59074;SDS011;44860;53.020;6.738;2024-02-16T11:19:47;11.25;;;8.52;;
59074;SDS011;44860;53.020;6.738;2024-02-16T11:22:15;12.23;;;9.63;;
59074;SDS011;44860;53.020;6.738;2024-02-16T11:24:45;14.07;;;9.18;;
59074;SDS011;44860;53.020;6.738;2024-02-16T11:27:15;14.27;;;10.07;;
59074;SDS011;44860;53.020;6.738;2024-02-16T11:29:44;15.13;;;9.90;;
59074;SDS011;44860;53.020;6.738;2024-02-16T11:32:10;13.63;;;9.98;;
59074;SDS011;44860;53.020;6.738;2024-02-16T11:34:36;15.27;;;11.35;;
59074;SDS011;44860;53.020;6.738;2024-02-16T11:37:06;15.50;;;10.73;;
59074;SDS011;44860;53.020;6.738;2024-02-16T11:39:32;17.15;;;10.75;;
59074;SDS011;44860;53.020;6.738;2024-02-16T11:42:04;21.05;;;12.07;;
59074;SDS011;44860;53.020;6.738;2024-02-16T11:44:31;20.92;;;14.43;;
59074;SDS011;44860;53.020;6.738;2024-02-16T11:46:58;19.45;;;14.77;;
59074;SDS011;44860;53.020;6.738;2024-02-16T11:49:24;19.35;;;14.90;;
59074;SDS011;44860;53.020;6.738;2024-02-16T11:51:50;21.80;;;15.38;;
59074;SDS011;44860;53.020;6.738;2024-02-16T11:54:17;21.30;;;15.20;;
59074;SDS011;44860;53.020;6.738;2024-02-16T11:56:46;22.25;;;16.40;;
59074;SDS011;44860;53.020;6.738;2024-02-16T11:59:15;24.67;;;16.17;;
59074;SDS011;44860;53.020;6.738;2024-02-16T12:01:54;23.77;;;15.70;;
59074;SDS011;44860;53.020;6.738;2024-02-16T12:04:21;21.65;;;15.65;;
59074;SDS011;44860;53.020;6.738;2024-02-16T12:06:47;19.42;;;15.95;;
59074;SDS011;44860;53.020;6.738;2024-02-16T12:09:16;23.95;;;18.67;;
59074;SDS011;44860;53.020;6.738;2024-02-16T12:11:42;16.90;;;15.02;;
59074;SDS011;44860;53.020;6.738;2024-02-16T12:14:07;15.20;;;10.80;;
59074;SDS011;44860;53.020;6.738;2024-02-16T12:16:33;15.68;;;11.75;;
59074;SDS011;44860;53.020;6.738;2024-02-16T12:19:05;16.23;;;12.38;;
59074;SDS011;44860;53.020;6.738;2024-02-16T12:21:31;13.52;;;11.93;;
59074;SDS011;44860;53.020;6.738;2024-02-16T12:23:56;12.95;;;9.90;;
59074;SDS011;44860;53.020;6.738;2024-02-16T12:26:22;17.73;;;13.30;;
59074;SDS011;44860;53.020;6.738;2024-02-16T12:28:48;13.20;;;9.60;;
59074;SDS011;44860;53.020;6.738;2024-02-16T12:31:20;11.75;;;8.68;;
59074;SDS011;44860;53.020;6.738;2024-02-16T12:33:48;10.40;;;7.95;;
59074;SDS011;44860;53.020;6.738;2024-02-16T12:36:13;12.02;;;8.77;;
59074;SDS011;44860;53.020;6.738;2024-02-16T12:38:39;13.65;;;10.13;;
59074;SDS011;44860;53.020;6.738;2024-02-16T12:41:05;12.73;;;9.95;;
59074;SDS011;44860;53.020;6.738;2024-02-16T12:43:31;12.30;;;8.90;;
59074;SDS011;44860;53.020;6.738;2024-02-16T12:45:57;12.00;;;9.18;;
59074;SDS011;44860;53.020;6.738;2024-02-16T12:48:26;12.45;;;8.18;;
59074;SDS011;44860;53.020;6.738;2024-02-16T12:50:52;11.15;;;7.60;;
59074;SDS011;44860;53.020;6.738;2024-02-16T12:53:18;8.70;;;6.07;;
59074;SDS011;44860;53.020;6.738;2024-02-16T12:55:45;10.35;;;8.65;;
59074;SDS011;44860;53.020;6.738;2024-02-16T12:58:12;8.95;;;7.30;;
59074;SDS011;44860;53.020;6.738;2024-02-16T13:00:38;10.10;;;7.43;;
59074;SDS011;44860;53.020;6.738;2024-02-16T13:03:04;10.38;;;7.10;;
59074;SDS011;44860;53.020;6.738;2024-02-16T13:05:30;10.82;;;7.45;;
59074;SDS011;44860;53.020;6.738;2024-02-16T13:07:57;10.13;;;7.43;;
59074;SDS011;44860;53.020;6.738;2024-02-16T13:10:23;10.35;;;7.70;;
59074;SDS011;44860;53.020;6.738;2024-02-16T13:12:49;8.95;;;7.18;;
59074;SDS011;44860;53.020;6.738;2024-02-16T13:15:15;11.60;;;9.10;;
59074;SDS011;44860;53.020;6.738;2024-02-16T13:17:41;11.90;;;8.38;;
59074;SDS011;44860;53.020;6.738;2024-02-16T13:20:06;11.90;;;9.88;;
59074;SDS011;44860;53.020;6.738;2024-02-16T13:22:37;10.23;;;8.10;;
59074;SDS011;44860;53.020;6.738;2024-02-16T13:25:04;8.85;;;6.45;;
59074;SDS011;44860;53.020;6.738;2024-02-16T13:27:30;8.18;;;6.40;;
59074;SDS011;44860;53.020;6.738;2024-02-16T13:29:57;9.00;;;6.50;;
59074;SDS011;44860;53.020;6.738;2024-02-16T13:32:22;9.85;;;7.75;;
59074;SDS011;44860;53.020;6.738;2024-02-16T13:34:48;10.00;;;6.93;;
59074;SDS011;44860;53.020;6.738;2024-02-16T13:37:14;10.15;;;6.90;;
59074;SDS011;44860;53.020;6.738;2024-02-16T13:39:43;7.85;;;6.10;;
59074;SDS011;44860;53.020;6.738;2024-02-16T13:42:08;8.93;;;6.55;;
59074;SDS011;44860;53.020;6.738;2024-02-16T13:44:35;8.23;;;6.65;;
59074;SDS011;44860;53.020;6.738;2024-02-16T13:47:01;8.98;;;6.07;;
59074;SDS011;44860;53.020;6.738;2024-02-16T13:49:27;7.38;;;5.95;;
59074;SDS011;44860;53.020;6.738;2024-02-16T13:51:53;8.32;;;6.70;;
59074;SDS011;44860;53.020;6.738;2024-02-16T13:54:19;7.38;;;6.10;;
59074;SDS011;44860;53.020;6.738;2024-02-16T13:56:46;8.07;;;5.90;;
59074;SDS011;44860;53.020;6.738;2024-02-16T13:59:11;7.50;;;6.40;;
59074;SDS011;44860;53.020;6.738;2024-02-16T14:01:37;7.43;;;6.35;;
59074;SDS011;44860;53.020;6.738;2024-02-16T14:04:03;8.35;;;7.43;;
59074;SDS011;44860;53.020;6.738;2024-02-16T14:06:29;8.18;;;7.35;;
59074;SDS011;44860;53.020;6.738;2024-02-16T14:08:56;5.45;;;4.70;;
59074;SDS011;44860;53.020;6.738;2024-02-16T14:11:22;8.77;;;6.35;;
59074;SDS011;44860;53.020;6.738;2024-02-16T14:13:48;7.75;;;6.30;;
59074;SDS011;44860;53.020;6.738;2024-02-16T14:16:14;5.90;;;4.85;;
59074;SDS011;44860;53.020;6.738;2024-02-16T14:18:40;7.70;;;6.07;;
59074;SDS011;44860;53.020;6.738;2024-02-16T14:21:05;6.85;;;5.50;;
59074;SDS011;44860;53.020;6.738;2024-02-16T14:23:31;9.13;;;6.80;;
59074;SDS011;44860;53.020;6.738;2024-02-16T14:25:57;13.27;;;8.25;;
59074;SDS011;44860;53.020;6.738;2024-02-16T14:28:24;7.78;;;4.70;;
59074;SDS011;44860;53.020;6.738;2024-02-16T14:30:49;12.90;;;7.40;;
59074;SDS011;44860;53.020;6.738;2024-02-16T14:33:18;11.95;;;7.25;;
59074;SDS011;44860;53.020;6.738;2024-02-16T14:35:44;11.45;;;7.65;;
59074;SDS011;44860;53.020;6.738;2024-02-16T14:38:10;7.00;;;4.53;;
59074;SDS011;44860;53.020;6.738;2024-02-16T14:40:37;11.88;;;8.30;;
59074;SDS011;44860;53.020;6.738;2024-02-16T14:43:03;8.85;;;5.90;;